sensor_id;sensor_type;location;lat;lon;timestamp;temperature;humidity
22986;DHT22;11659;51.092;7.080;2022-08-21T00:00:08;15.00;99.90
22986;DHT22;11659;51.092;7.080;2022-08-21T00:02:45;15.00;99.90
22986;DHT22;11659;51.092;7.080;2022-08-21T00:05:12;14.90;99.90
22986;DHT22;11659;51.092;7.080;2022-08-21T00:07:38;14.90;99.90
22986;DHT22;11659;51.092;7.080;2022-08-21T00:10:05;14.90;99.90
22986;DHT22;11659;51.092;7.080;2022-08-21T00:12:32;14.90;99.90
22986;DHT22;11659;51.092;7.080;2022-08-21T00:14:58;14.90;99.90
22986;DHT22;11659;51.092;7.080;2022-08-21T00:17:25;14.90;99.90
22986;DHT22;11659;51.092;7.080;2022-08-21T00:19:51;14.80;99.90
22986;DHT22;11659;51.092;7.080;2022-08-21T00:22:17;14.80;99.90
22986;DHT22;11659;51.092;7.080;2022-08-21T00:24:43;14.80;99.90
22986;DHT22;11659;51.092;7.080;2022-08-21T00:27:09;14.80;99.90
22986;DHT22;11659;51.092;7.080;2022-08-21T00:29:35;14.80;99.90
22986;DHT22;11659;51.092;7.080;2022-08-21T00:32:01;14.80;99.90
22986;DHT22;11659;51.092;7.080;2022-08-21T00:34:29;14.70;99.90
22986;DHT22;11659;51.092;7.080;2022-08-21T00:36:55;14.70;99.90
22986;DHT22;11659;51.092;7.080;2022-08-21T00:39:20;14.70;99.90
22986;DHT22;11659;51.092;7.080;2022-08-21T00:41:47;14.70;99.90
22986;DHT22;11659;51.092;7.080;2022-08-21T00:44:14;14.70;99.90
22986;DHT22;11659;51.092;7.080;2022-08-21T00:46:41;14.70;99.90
22986;DHT22;11659;51.092;7.080;2022-08-21T00:49:08;14.70;99.90
22986;DHT22;11659;51.092;7.080;2022-08-21T00:51:39;14.70;99.90
22986;DHT22;11659;51.092;7.080;2022-08-21T00:54:08;14.70;99.90
22986;DHT22;11659;51.092;7.080;2022-08-21T00:56:35;14.70;99.90
22986;DHT22;11659;51.092;7.080;2022-08-21T00:59:02;14.70;99.90
22986;DHT22;11659;51.092;7.080;2022-08-21T01:01:29;14.70;99.90
22986;DHT22;11659;51.092;7.080;2022-08-21T01:03:55;14.70;99.90
22986;DHT22;11659;51.092;7.080;2022-08-21T01:06:21;14.70;99.90
22986;DHT22;11659;51.092;7.080;2022-08-21T01:08:49;14.60;99.90
22986;DHT22;11659;51.092;7.080;2022-08-21T01:11:15;14.70;99.90
22986;DHT22;11659;51.092;7.080;2022-08-21T01:13:42;14.60;99.90
22986;DHT22;11659;51.092;7.080;2022-08-21T01:16:14;14.60;99.90
22986;DHT22;11659;51.092;7.080;2022-08-21T01:18:41;14.60;99.90
22986;DHT22;11659;51.092;7.080;2022-08-21T01:21:12;14.60;99.90
22986;DHT22;11659;51.092;7.080;2022-08-21T01:23:42;14.60;99.90
22986;DHT22;11659;51.092;7.080;2022-08-21T01:26:09;14.60;99.90
22986;DHT22;11659;51.092;7.080;2022-08-21T01:28:38;14.60;99.90
22986;DHT22;11659;51.092;7.080;2022-08-21T01:31:07;14.60;99.90
22986;DHT22;11659;51.092;7.080;2022-08-21T01:33:35;14.60;99.90
22986;DHT22;11659;51.092;7.080;2022-08-21T01:36:01;14.60;99.90
22986;DHT22;11659;51.092;7.080;2022-08-21T01:38:29;14.60;99.90
22986;DHT22;11659;51.092;7.080;2022-08-21T01:40:55;14.60;99.90
22986;DHT22;11659;51.092;7.080;2022-08-21T01:43:21;14.60;99.90
22986;DHT22;11659;51.092;7.080;2022-08-21T01:45:47;14.60;99.90
22986;DHT22;11659;51.092;7.080;2022-08-21T01:48:13;14.60;99.90
22986;DHT22;11659;51.092;7.080;2022-08-21T01:50:39;14.60;99.90
22986;DHT22;11659;51.092;7.080;2022-08-21T01:53:05;14.60;99.90
22986;DHT22;11659;51.092;7.080;2022-08-21T01:55:32;14.60;99.90
22986;DHT22;11659;51.092;7.080;2022-08-21T01:57:59;14.60;99.90
22986;DHT22;11659;51.092;7.080;2022-08-21T02:00:25;14.50;99.90
22986;DHT22;11659;51.092;7.080;2022-08-21T02:02:51;14.50;99.90
22986;DHT22;11659;51.092;7.080;2022-08-21T02:05:18;14.50;99.90
22986;DHT22;11659;51.092;7.080;2022-08-21T02:07:48;14.50;99.90
22986;DHT22;11659;51.092;7.080;2022-08-21T02:10:16;14.50;99.90
22986;DHT22;11659;51.092;7.080;2022-08-21T02:12:44;14.50;99.90
22986;DHT22;11659;51.092;7.080;2022-08-21T02:15:11;14.50;99.90
22986;DHT22;11659;51.092;7.080;2022-08-21T02:17:39;14.40;99.90
22986;DHT22;11659;51.092;7.080;2022-08-21T02:20:06;14.40;99.90
22986;DHT22;11659;51.092;7.080;2022-08-21T02:22:33;14.30;99.90
22986;DHT22;11659;51.092;7.080;2022-08-21T02:24:59;14.30;99.90
22986;DHT22;11659;51.092;7.080;2022-08-21T02:27:25;14.30;99.90
22986;DHT22;11659;51.092;7.080;2022-08-21T02:29:54;14.20;99.90
22986;DHT22;11659;51.092;7.080;2022-08-21T02:32:20;14.20;99.90
22986;DHT22;11659;51.092;7.080;2022-08-21T02:34:47;14.20;99.90
22986;DHT22;11659;51.092;7.080;2022-08-21T02:37:13;14.10;99.90
22986;DHT22;11659;51.092;7.080;2022-08-21T02:39:39;14.10;99.90
22986;DHT22;11659;51.092;7.080;2022-08-21T02:42:05;14.10;99.90
22986;DHT22;11659;51.092;7.080;2022-08-21T02:44:31;14.00;99.90
22986;DHT22;11659;51.092;7.080;2022-08-21T02:46:58;14.00;99.90
22986;DHT22;11659;51.092;7.080;2022-08-21T02:49:24;14.00;99.90
22986;DHT22;11659;51.092;7.080;2022-08-21T02:51:50;13.90;99.90
22986;DHT22;11659;51.092;7.080;2022-08-21T02:54:16;13.90;99.90
22986;DHT22;11659;51.092;7.080;2022-08-21T02:56:42;13.90;99.90
22986;DHT22;11659;51.092;7.080;2022-08-21T02:59:08;13.90;99.90
22986;DHT22;11659;51.092;7.080;2022-08-21T03:01:34;13.90;99.90
22986;DHT22;11659;51.092;7.080;2022-08-21T03:04:01;13.80;99.90
22986;DHT22;11659;51.092;7.080;2022-08-21T03:06:27;13.80;99.90
22986;DHT22;11659;51.092;7.080;2022-08-21T03:08:55;13.80;99.90
22986;DHT22;11659;51.092;7.080;2022-08-21T03:11:20;13.80;99.90
22986;DHT22;11659;51.092;7.080;2022-08-21T03:13:46;13.80;99.90
22986;DHT22;11659;51.092;7.080;2022-08-21T03:16:12;13.70;99.90
22986;DHT22;11659;51.092;7.080;2022-08-21T03:18:39;13.80;99.90
22986;DHT22;11659;51.092;7.080;2022-08-21T03:21:06;13.70;99.90
22986;DHT22;11659;51.092;7.080;2022-08-21T03:23:33;13.70;99.90
22986;DHT22;11659;51.092;7.080;2022-08-21T03:25:59;13.70;99.90
22986;DHT22;11659;51.092;7.080;2022-08-21T03:28:25;13.70;99.90
22986;DHT22;11659;51.092;7.080;2022-08-21T03:30:52;13.70;99.90
22986;DHT22;11659;51.092;7.080;2022-08-21T03:33:19;13.70;99.90
22986;DHT22;11659;51.092;7.080;2022-08-21T03:35:47;13.70;99.90
22986;DHT22;11659;51.092;7.080;2022-08-21T03:38:16;13.70;99.90
22986;DHT22;11659;51.092;7.080;2022-08-21T03:40:43;13.70;99.90
22986;DHT22;11659;51.092;7.080;2022-08-21T03:43:09;13.70;99.90
22986;DHT22;11659;51.092;7.080;2022-08-21T03:45:35;13.70;99.90
22986;DHT22;11659;51.092;7.080;2022-08-21T03:48:03;13.70;99.90
22986;DHT22;11659;51.092;7.080;2022-08-21T03:50:32;13.60;99.90
22986;DHT22;11659;51.092;7.080;2022-08-21T03:53:00;13.60;99.90
22986;DHT22;11659;51.092;7.080;2022-08-21T03:55:28;13.60;99.90
22986;DHT22;11659;51.092;7.080;2022-08-21T03:57:54;13.60;99.90
22986;DHT22;11659;51.092;7.080;2022-08-21T04:00:20;13.60;99.90
22986;DHT22;11659;51.092;7.080;2022-08-21T04:02:47;13.60;99.90
22986;DHT22;11659;51.092;7.080;2022-08-21T04:05:14;13.60;99.90
22986;DHT22;11659;51.092;7.080;2022-08-21T04:07:53;13.60;99.90
22986;DHT22;11659;51.092;7.080;2022-08-21T04:10:20;13.50;99.90
22986;DHT22;11659;51.092;7.080;2022-08-21T04:12:47;13.50;99.90
22986;DHT22;11659;51.092;7.080;2022-08-21T04:15:13;13.50;99.90
22986;DHT22;11659;51.092;7.080;2022-08-21T04:17:40;13.50;99.90
22986;DHT22;11659;51.092;7.080;2022-08-21T04:20:07;13.50;99.90
22986;DHT22;11659;51.092;7.080;2022-08-21T04:22:33;13.50;99.90
22986;DHT22;11659;51.092;7.080;2022-08-21T04:24:59;13.40;99.90
22986;DHT22;11659;51.092;7.080;2022-08-21T04:27:25;13.40;99.90
22986;DHT22;11659;51.092;7.080;2022-08-21T04:29:52;13.40;99.90
22986;DHT22;11659;51.092;7.080;2022-08-21T04:32:22;13.40;99.90
22986;DHT22;11659;51.092;7.080;2022-08-21T04:34:48;13.40;99.90
22986;DHT22;11659;51.092;7.080;2022-08-21T04:37:17;13.30;99.90
22986;DHT22;11659;51.092;7.080;2022-08-21T04:39:43;13.30;99.90
22986;DHT22;11659;51.092;7.080;2022-08-21T04:42:09;13.30;99.90
22986;DHT22;11659;51.092;7.080;2022-08-21T04:44:36;13.30;99.90
22986;DHT22;11659;51.092;7.080;2022-08-21T04:47:03;13.30;99.90
22986;DHT22;11659;51.092;7.080;2022-08-21T04:49:29;13.30;99.90
22986;DHT22;11659;51.092;7.080;2022-08-21T04:51:56;13.30;99.90
22986;DHT22;11659;51.092;7.080;2022-08-21T04:54:22;13.30;99.90
22986;DHT22;11659;51.092;7.080;2022-08-21T04:56:51;13.30;99.90
22986;DHT22;11659;51.092;7.080;2022-08-21T04:59:21;13.30;99.90
22986;DHT22;11659;51.092;7.080;2022-08-21T05:01:49;13.30;99.90
22986;DHT22;11659;51.092;7.080;2022-08-21T05:04:23;13.30;99.90
22986;DHT22;11659;51.092;7.080;2022-08-21T05:06:50;13.30;99.90
22986;DHT22;11659;51.092;7.080;2022-08-21T05:09:19;13.30;99.90
22986;DHT22;11659;51.092;7.080;2022-08-21T05:11:46;13.30;99.90
22986;DHT22;11659;51.092;7.080;2022-08-21T05:14:13;13.30;99.90
22986;DHT22;11659;51.092;7.080;2022-08-21T05:16:39;13.30;99.90
22986;DHT22;11659;51.092;7.080;2022-08-21T05:19:06;13.30;99.90
22986;DHT22;11659;51.092;7.080;2022-08-21T05:21:34;13.40;99.90
22986;DHT22;11659;51.092;7.080;2022-08-21T05:24:00;13.40;99.90
22986;DHT22;11659;51.092;7.080;2022-08-21T05:26:26;13.40;99.90
22986;DHT22;11659;51.092;7.080;2022-08-21T05:28:52;13.40;99.90
22986;DHT22;11659;51.092;7.080;2022-08-21T05:31:18;13.50;99.90
22986;DHT22;11659;51.092;7.080;2022-08-21T05:33:44;13.50;99.90
22986;DHT22;11659;51.092;7.080;2022-08-21T05:36:10;13.50;99.90
22986;DHT22;11659;51.092;7.080;2022-08-21T05:38:37;13.50;99.90
22986;DHT22;11659;51.092;7.080;2022-08-21T05:41:04;13.60;99.90
22986;DHT22;11659;51.092;7.080;2022-08-21T05:43:30;13.60;99.90
22986;DHT22;11659;51.092;7.080;2022-08-21T05:45:58;13.60;99.90
22986;DHT22;11659;51.092;7.080;2022-08-21T05:48:24;13.60;99.90
22986;DHT22;11659;51.092;7.080;2022-08-21T05:50:51;13.70;99.90
22986;DHT22;11659;51.092;7.080;2022-08-21T05:53:20;13.70;99.90
22986;DHT22;11659;51.092;7.080;2022-08-21T05:55:48;13.80;99.90
22986;DHT22;11659;51.092;7.080;2022-08-21T05:58:16;13.80;99.90
22986;DHT22;11659;51.092;7.080;2022-08-21T06:00:42;13.80;99.90
22986;DHT22;11659;51.092;7.080;2022-08-21T06:03:11;13.90;99.90
22986;DHT22;11659;51.092;7.080;2022-08-21T06:05:37;13.90;99.90
22986;DHT22;11659;51.092;7.080;2022-08-21T06:08:03;14.00;99.90
22986;DHT22;11659;51.092;7.080;2022-08-21T06:10:29;14.00;99.90
22986;DHT22;11659;51.092;7.080;2022-08-21T06:12:57;14.10;99.90
22986;DHT22;11659;51.092;7.080;2022-08-21T06:15:23;14.20;99.90
22986;DHT22;11659;51.092;7.080;2022-08-21T06:17:48;14.30;99.90
22986;DHT22;11659;51.092;7.080;2022-08-21T06:20:15;14.40;99.90
22986;DHT22;11659;51.092;7.080;2022-08-21T06:22:41;14.50;99.90
22986;DHT22;11659;51.092;7.080;2022-08-21T06:25:07;14.60;99.90
22986;DHT22;11659;51.092;7.080;2022-08-21T06:27:34;14.70;99.90
22986;DHT22;11659;51.092;7.080;2022-08-21T06:30:02;14.90;99.90
22986;DHT22;11659;51.092;7.080;2022-08-21T06:32:28;15.00;99.90
22986;DHT22;11659;51.092;7.080;2022-08-21T06:34:54;15.20;99.90
22986;DHT22;11659;51.092;7.080;2022-08-21T06:37:20;15.30;99.90
22986;DHT22;11659;51.092;7.080;2022-08-21T06:39:46;15.40;99.90
22986;DHT22;11659;51.092;7.080;2022-08-21T06:42:16;15.60;99.90
22986;DHT22;11659;51.092;7.080;2022-08-21T06:44:43;15.70;99.90
22986;DHT22;11659;51.092;7.080;2022-08-21T06:47:11;15.80;99.90
22986;DHT22;11659;51.092;7.080;2022-08-21T06:49:37;16.00;99.90
22986;DHT22;11659;51.092;7.080;2022-08-21T06:52:03;16.10;99.90
22986;DHT22;11659;51.092;7.080;2022-08-21T06:54:29;16.20;99.90
22986;DHT22;11659;51.092;7.080;2022-08-21T06:56:56;16.20;99.90
22986;DHT22;11659;51.092;7.080;2022-08-21T06:59:22;16.40;99.90
22986;DHT22;11659;51.092;7.080;2022-08-21T07:01:48;16.40;99.90
22986;DHT22;11659;51.092;7.080;2022-08-21T07:04:15;16.50;99.90
22986;DHT22;11659;51.092;7.080;2022-08-21T07:06:41;16.50;99.90
22986;DHT22;11659;51.092;7.080;2022-08-21T07:09:07;16.60;99.90
22986;DHT22;11659;51.092;7.080;2022-08-21T07:11:35;16.70;99.90
22986;DHT22;11659;51.092;7.080;2022-08-21T07:14:01;16.80;99.90
22986;DHT22;11659;51.092;7.080;2022-08-21T07:16:27;16.90;99.90
22986;DHT22;11659;51.092;7.080;2022-08-21T07:18:53;17.00;99.90
22986;DHT22;11659;51.092;7.080;2022-08-21T07:21:21;17.00;99.90
22986;DHT22;11659;51.092;7.080;2022-08-21T07:23:49;17.10;99.90
22986;DHT22;11659;51.092;7.080;2022-08-21T07:26:18;17.20;99.90
22986;DHT22;11659;51.092;7.080;2022-08-21T07:28:44;17.30;99.90
22986;DHT22;11659;51.092;7.080;2022-08-21T07:31:14;17.40;99.90
22986;DHT22;11659;51.092;7.080;2022-08-21T07:33:41;17.40;99.90
22986;DHT22;11659;51.092;7.080;2022-08-21T07:36:07;17.50;99.90
22986;DHT22;11659;51.092;7.080;2022-08-21T07:38:35;17.60;99.90
22986;DHT22;11659;51.092;7.080;2022-08-21T07:41:02;17.70;99.90
22986;DHT22;11659;51.092;7.080;2022-08-21T07:43:29;17.80;99.90
22986;DHT22;11659;51.092;7.080;2022-08-21T07:45:55;17.80;99.90
22986;DHT22;11659;51.092;7.080;2022-08-21T07:48:23;17.90;99.90
22986;DHT22;11659;51.092;7.080;2022-08-21T07:50:49;18.00;99.90
22986;DHT22;11659;51.092;7.080;2022-08-21T07:53:16;18.10;99.90
22986;DHT22;11659;51.092;7.080;2022-08-21T07:55:44;18.10;99.90
22986;DHT22;11659;51.092;7.080;2022-08-21T07:58:10;18.20;99.90
22986;DHT22;11659;51.092;7.080;2022-08-21T08:00:36;18.20;99.90
22986;DHT22;11659;51.092;7.080;2022-08-21T08:03:02;18.30;99.90
22986;DHT22;11659;51.092;7.080;2022-08-21T08:05:29;18.40;99.90
22986;DHT22;11659;51.092;7.080;2022-08-21T08:07:56;18.50;99.90
22986;DHT22;11659;51.092;7.080;2022-08-21T08:10:23;18.50;99.90
22986;DHT22;11659;51.092;7.080;2022-08-21T08:12:50;18.60;99.90
22986;DHT22;11659;51.092;7.080;2022-08-21T08:15:19;18.70;99.90
22986;DHT22;11659;51.092;7.080;2022-08-21T08:17:46;18.80;99.90
22986;DHT22;11659;51.092;7.080;2022-08-21T08:20:15;19.00;99.90
22986;DHT22;11659;51.092;7.080;2022-08-21T08:22:41;19.00;99.90
22986;DHT22;11659;51.092;7.080;2022-08-21T08:25:09;19.10;99.90
22986;DHT22;11659;51.092;7.080;2022-08-21T08:27:36;19.30;99.90
22986;DHT22;11659;51.092;7.080;2022-08-21T08:30:05;19.20;99.90
22986;DHT22;11659;51.092;7.080;2022-08-21T08:32:31;19.30;99.90
22986;DHT22;11659;51.092;7.080;2022-08-21T08:34:57;19.30;99.90
22986;DHT22;11659;51.092;7.080;2022-08-21T08:37:23;19.40;99.90
22986;DHT22;11659;51.092;7.080;2022-08-21T08:39:49;19.50;99.90
22986;DHT22;11659;51.092;7.080;2022-08-21T08:42:22;19.60;99.90
22986;DHT22;11659;51.092;7.080;2022-08-21T08:44:52;19.70;99.90
22986;DHT22;11659;51.092;7.080;2022-08-21T08:47:20;19.70;99.90
22986;DHT22;11659;51.092;7.080;2022-08-21T08:49:55;19.90;99.90
22986;DHT22;11659;51.092;7.080;2022-08-21T08:52:28;20.00;99.90
22986;DHT22;11659;51.092;7.080;2022-08-21T08:55:02;20.10;99.90
22986;DHT22;11659;51.092;7.080;2022-08-21T08:57:29;20.20;99.90
22986;DHT22;11659;51.092;7.080;2022-08-21T08:59:58;20.30;99.90
22986;DHT22;11659;51.092;7.080;2022-08-21T09:02:26;20.40;99.90
22986;DHT22;11659;51.092;7.080;2022-08-21T09:04:55;20.40;99.90
22986;DHT22;11659;51.092;7.080;2022-08-21T09:07:31;20.50;99.90
22986;DHT22;11659;51.092;7.080;2022-08-21T09:10:11;20.60;99.90
22986;DHT22;11659;51.092;7.080;2022-08-21T09:12:49;20.60;99.90
22986;DHT22;11659;51.092;7.080;2022-08-21T09:15:23;20.70;99.90
22986;DHT22;11659;51.092;7.080;2022-08-21T09:18:12;20.90;99.90
22986;DHT22;11659;51.092;7.080;2022-08-21T09:20:48;21.00;99.90
22986;DHT22;11659;51.092;7.080;2022-08-21T09:23:28;21.10;99.90
22986;DHT22;11659;51.092;7.080;2022-08-21T09:25:59;21.30;99.80
22986;DHT22;11659;51.092;7.080;2022-08-21T09:28:31;21.40;99.30
22986;DHT22;11659;51.092;7.080;2022-08-21T09:30:58;21.40;99.00
22986;DHT22;11659;51.092;7.080;2022-08-21T09:33:29;21.50;98.90
22986;DHT22;11659;51.092;7.080;2022-08-21T09:35:56;21.50;98.80
22986;DHT22;11659;51.092;7.080;2022-08-21T09:38:28;21.60;98.70
22986;DHT22;11659;51.092;7.080;2022-08-21T09:41:00;21.60;98.40
22986;DHT22;11659;51.092;7.080;2022-08-21T09:43:27;21.70;98.20
22986;DHT22;11659;51.092;7.080;2022-08-21T09:46:19;21.80;98.30
22986;DHT22;11659;51.092;7.080;2022-08-21T09:48:50;21.90;97.70
22986;DHT22;11659;51.092;7.080;2022-08-21T09:51:18;21.90;97.30
22986;DHT22;11659;51.092;7.080;2022-08-21T09:53:48;21.90;97.30
22986;DHT22;11659;51.092;7.080;2022-08-21T09:56:27;22.00;97.20
22986;DHT22;11659;51.092;7.080;2022-08-21T09:59:24;22.10;97.10
22986;DHT22;11659;51.092;7.080;2022-08-21T10:01:52;22.20;96.90
22986;DHT22;11659;51.092;7.080;2022-08-21T10:04:28;22.30;96.70
22986;DHT22;11659;51.092;7.080;2022-08-21T10:06:54;22.30;96.60
22986;DHT22;11659;51.092;7.080;2022-08-21T10:09:21;22.30;96.50
22986;DHT22;11659;51.092;7.080;2022-08-21T10:11:53;22.40;96.40
22986;DHT22;11659;51.092;7.080;2022-08-21T10:14:33;22.50;96.00
22986;DHT22;11659;51.092;7.080;2022-08-21T10:17:07;22.50;95.90
22986;DHT22;11659;51.092;7.080;2022-08-21T10:19:43;22.60;95.70
22986;DHT22;11659;51.092;7.080;2022-08-21T10:22:23;22.60;95.60
22986;DHT22;11659;51.092;7.080;2022-08-21T10:25:05;22.70;95.60
22986;DHT22;11659;51.092;7.080;2022-08-21T10:27:39;22.80;95.30
22986;DHT22;11659;51.092;7.080;2022-08-21T10:30:11;22.90;95.20
22986;DHT22;11659;51.092;7.080;2022-08-21T10:33:00;22.90;95.00
22986;DHT22;11659;51.092;7.080;2022-08-21T10:35:30;22.90;95.00
22986;DHT22;11659;51.092;7.080;2022-08-21T10:38:09;23.10;94.80
22986;DHT22;11659;51.092;7.080;2022-08-21T10:40:42;23.10;94.50
22986;DHT22;11659;51.092;7.080;2022-08-21T10:43:19;23.10;94.40
22986;DHT22;11659;51.092;7.080;2022-08-21T10:45:54;23.20;94.30
22986;DHT22;11659;51.092;7.080;2022-08-21T10:48:27;23.30;94.20
22986;DHT22;11659;51.092;7.080;2022-08-21T10:50:59;23.40;94.00
22986;DHT22;11659;51.092;7.080;2022-08-21T10:53:50;23.50;93.80
22986;DHT22;11659;51.092;7.080;2022-08-21T10:56:23;23.50;93.50
22986;DHT22;11659;51.092;7.080;2022-08-21T10:59:00;23.60;93.30
22986;DHT22;11659;51.092;7.080;2022-08-21T11:01:31;23.60;93.10
22986;DHT22;11659;51.092;7.080;2022-08-21T11:04:09;23.60;92.90
22986;DHT22;11659;51.092;7.080;2022-08-21T11:06:42;23.70;92.80
22986;DHT22;11659;51.092;7.080;2022-08-21T11:09:13;23.70;92.90
22986;DHT22;11659;51.092;7.080;2022-08-21T11:11:44;23.70;93.20
22986;DHT22;11659;51.092;7.080;2022-08-21T11:14:19;23.70;92.80
22986;DHT22;11659;51.092;7.080;2022-08-21T11:16:51;23.90;92.80
22986;DHT22;11659;51.092;7.080;2022-08-21T11:19:22;24.00;92.50
22986;DHT22;11659;51.092;7.080;2022-08-21T11:21:58;24.10;92.00
22986;DHT22;11659;51.092;7.080;2022-08-21T11:24:30;24.20;92.10
22986;DHT22;11659;51.092;7.080;2022-08-21T11:27:01;24.30;91.80
22986;DHT22;11659;51.092;7.080;2022-08-21T11:29:30;24.30;91.80
22986;DHT22;11659;51.092;7.080;2022-08-21T11:35:01;24.70;91.60
22986;DHT22;11659;51.092;7.080;2022-08-21T11:37:48;24.90;91.30
22986;DHT22;11659;51.092;7.080;2022-08-21T11:40:28;25.10;90.90
22986;DHT22;11659;51.092;7.080;2022-08-21T11:43:05;25.20;90.60
22986;DHT22;11659;51.092;7.080;2022-08-21T11:45:42;25.30;90.50
22986;DHT22;11659;51.092;7.080;2022-08-21T11:48:16;25.40;90.40
22986;DHT22;11659;51.092;7.080;2022-08-21T11:50:45;25.60;90.30
22986;DHT22;11659;51.092;7.080;2022-08-21T11:53:17;25.80;90.10
22986;DHT22;11659;51.092;7.080;2022-08-21T11:55:47;25.90;89.40
22986;DHT22;11659;51.092;7.080;2022-08-21T11:58:20;25.90;88.90
22986;DHT22;11659;51.092;7.080;2022-08-21T12:00:49;26.00;89.30
22986;DHT22;11659;51.092;7.080;2022-08-21T12:03:23;26.00;89.00
22986;DHT22;11659;51.092;7.080;2022-08-21T12:05:53;26.10;88.90
22986;DHT22;11659;51.092;7.080;2022-08-21T12:08:30;26.20;88.50
22986;DHT22;11659;51.092;7.080;2022-08-21T12:11:02;26.30;88.10
22986;DHT22;11659;51.092;7.080;2022-08-21T12:13:31;26.30;87.70
22986;DHT22;11659;51.092;7.080;2022-08-21T12:16:06;26.40;87.30
22986;DHT22;11659;51.092;7.080;2022-08-21T12:18:33;26.50;86.70
22986;DHT22;11659;51.092;7.080;2022-08-21T12:21:04;26.60;87.10
22986;DHT22;11659;51.092;7.080;2022-08-21T12:23:34;26.80;86.70
22986;DHT22;11659;51.092;7.080;2022-08-21T12:26:25;27.00;85.90
22986;DHT22;11659;51.092;7.080;2022-08-21T12:29:13;27.30;84.70
22986;DHT22;11659;51.092;7.080;2022-08-21T12:31:53;27.40;82.90
22986;DHT22;11659;51.092;7.080;2022-08-21T12:34:20;27.60;82.40
22986;DHT22;11659;51.092;7.080;2022-08-21T12:36:49;27.80;82.50
22986;DHT22;11659;51.092;7.080;2022-08-21T12:39:22;28.00;82.10
22986;DHT22;11659;51.092;7.080;2022-08-21T12:42:05;28.20;81.70
22986;DHT22;11659;51.092;7.080;2022-08-21T12:44:38;28.40;80.90
22986;DHT22;11659;51.092;7.080;2022-08-21T12:47:13;28.50;79.90
22986;DHT22;11659;51.092;7.080;2022-08-21T12:49:45;28.60;79.80
22986;DHT22;11659;51.092;7.080;2022-08-21T12:52:19;28.70;78.80
22986;DHT22;11659;51.092;7.080;2022-08-21T12:54:47;28.70;78.60
22986;DHT22;11659;51.092;7.080;2022-08-21T12:57:22;28.80;77.70
22986;DHT22;11659;51.092;7.080;2022-08-21T12:59:53;28.80;77.20
22986;DHT22;11659;51.092;7.080;2022-08-21T13:02:22;28.80;76.90
22986;DHT22;11659;51.092;7.080;2022-08-21T13:04:49;28.80;77.30
22986;DHT22;11659;51.092;7.080;2022-08-21T13:07:21;28.70;77.20
22986;DHT22;11659;51.092;7.080;2022-08-21T13:09:52;28.50;78.10
22986;DHT22;11659;51.092;7.080;2022-08-21T13:12:20;28.30;78.00
22986;DHT22;11659;51.092;7.080;2022-08-21T13:14:48;28.10;78.10
22986;DHT22;11659;51.092;7.080;2022-08-21T13:17:18;27.90;78.20
22986;DHT22;11659;51.092;7.080;2022-08-21T13:19:53;27.70;78.00
22986;DHT22;11659;51.092;7.080;2022-08-21T13:22:20;27.50;77.30
22986;DHT22;11659;51.092;7.080;2022-08-21T13:24:47;27.40;76.40
22986;DHT22;11659;51.092;7.080;2022-08-21T13:27:24;27.30;76.00
22986;DHT22;11659;51.092;7.080;2022-08-21T13:30:06;27.20;76.50
22986;DHT22;11659;51.092;7.080;2022-08-21T13:32:34;27.10;76.90
22986;DHT22;11659;51.092;7.080;2022-08-21T13:35:12;27.10;77.50
22986;DHT22;11659;51.092;7.080;2022-08-21T13:37:39;27.00;77.60
22986;DHT22;11659;51.092;7.080;2022-08-21T13:40:09;26.90;77.70
22986;DHT22;11659;51.092;7.080;2022-08-21T13:42:40;26.80;77.70
22986;DHT22;11659;51.092;7.080;2022-08-21T13:45:21;26.70;78.10
22986;DHT22;11659;51.092;7.080;2022-08-21T13:47:48;26.60;78.30
22986;DHT22;11659;51.092;7.080;2022-08-21T13:50:15;26.50;79.20
22986;DHT22;11659;51.092;7.080;2022-08-21T13:52:56;26.50;79.60
22986;DHT22;11659;51.092;7.080;2022-08-21T13:55:23;26.50;79.90
22986;DHT22;11659;51.092;7.080;2022-08-21T13:58:00;26.40;79.50
22986;DHT22;11659;51.092;7.080;2022-08-21T14:00:29;26.30;79.30
22986;DHT22;11659;51.092;7.080;2022-08-21T14:03:02;26.10;79.50
22986;DHT22;11659;51.092;7.080;2022-08-21T14:05:31;26.10;79.90
22986;DHT22;11659;51.092;7.080;2022-08-21T14:08:02;26.00;79.90
22986;DHT22;11659;51.092;7.080;2022-08-21T14:10:29;26.00;79.90
22986;DHT22;11659;51.092;7.080;2022-08-21T14:13:00;26.00;80.20
22986;DHT22;11659;51.092;7.080;2022-08-21T14:15:29;26.10;80.60
22986;DHT22;11659;51.092;7.080;2022-08-21T14:18:07;26.10;80.30
22986;DHT22;11659;51.092;7.080;2022-08-21T14:20:35;26.20;79.90
22986;DHT22;11659;51.092;7.080;2022-08-21T14:23:02;26.20;79.80
22986;DHT22;11659;51.092;7.080;2022-08-21T14:25:30;26.10;79.30
22986;DHT22;11659;51.092;7.080;2022-08-21T14:28:11;26.10;79.00
22986;DHT22;11659;51.092;7.080;2022-08-21T14:30:41;26.00;79.10
22986;DHT22;11659;51.092;7.080;2022-08-21T14:33:10;26.00;79.30
22986;DHT22;11659;51.092;7.080;2022-08-21T14:35:36;26.00;79.40
22986;DHT22;11659;51.092;7.080;2022-08-21T14:38:10;26.10;78.90
22986;DHT22;11659;51.092;7.080;2022-08-21T14:40:36;26.00;78.80
22986;DHT22;11659;51.092;7.080;2022-08-21T14:43:04;26.00;79.00
22986;DHT22;11659;51.092;7.080;2022-08-21T14:45:30;26.00;78.80
22986;DHT22;11659;51.092;7.080;2022-08-21T14:47:58;26.00;79.00
22986;DHT22;11659;51.092;7.080;2022-08-21T14:50:24;26.00;79.10
22986;DHT22;11659;51.092;7.080;2022-08-21T14:52:50;26.00;79.30
22986;DHT22;11659;51.092;7.080;2022-08-21T14:55:17;26.00;79.30
22986;DHT22;11659;51.092;7.080;2022-08-21T14:57:46;26.00;79.10
22986;DHT22;11659;51.092;7.080;2022-08-21T15:00:17;26.00;78.90
22986;DHT22;11659;51.092;7.080;2022-08-21T15:02:43;25.90;79.10
22986;DHT22;11659;51.092;7.080;2022-08-21T15:05:10;25.90;79.20
22986;DHT22;11659;51.092;7.080;2022-08-21T15:07:36;25.90;79.40
22986;DHT22;11659;51.092;7.080;2022-08-21T15:10:04;25.80;79.20
22986;DHT22;11659;51.092;7.080;2022-08-21T15:12:30;25.90;79.00
22986;DHT22;11659;51.092;7.080;2022-08-21T15:14:56;25.90;79.10
22986;DHT22;11659;51.092;7.080;2022-08-21T15:17:25;25.90;78.90
22986;DHT22;11659;51.092;7.080;2022-08-21T15:19:51;25.80;78.40
22986;DHT22;11659;51.092;7.080;2022-08-21T15:22:17;25.80;78.40
22986;DHT22;11659;51.092;7.080;2022-08-21T15:24:44;25.80;78.70
22986;DHT22;11659;51.092;7.080;2022-08-21T15:27:10;25.80;78.80
22986;DHT22;11659;51.092;7.080;2022-08-21T15:29:38;25.80;79.00
22986;DHT22;11659;51.092;7.080;2022-08-21T15:32:17;25.80;79.20
22986;DHT22;11659;51.092;7.080;2022-08-21T15:34:44;25.80;79.30
22986;DHT22;11659;51.092;7.080;2022-08-21T15:37:10;25.80;79.10
22986;DHT22;11659;51.092;7.080;2022-08-21T15:39:36;25.90;78.90
22986;DHT22;11659;51.092;7.080;2022-08-21T15:42:03;25.90;78.70
22986;DHT22;11659;51.092;7.080;2022-08-21T15:44:29;26.00;78.50